Time;durP1;ratioP1;P1;durP2;ratioP2;P2;SDS_P1;SDS_P2;PMS_P1;PMS_P2;Temp;Humidity;BMP_temperature;BMP_pressure;BME280_temperature;BME280_humidity;BME280_pressure;Samples;Min_cycle;Max_cycle;Signal;HPM_P1;HPM_P2
2021/12/12 00:01:53;;;;;;;31.25;20.45;;;3.60;99.90;;;;;;5156869;27;20076;-71
2021/12/12 00:04:31;;;;;;;41.67;21.67;;;3.60;99.90;;;;;;5157180;27;20382;-71
2021/12/12 00:07:01;;;;;;;34.05;20.85;;;3.60;99.90;;;;;;5156528;27;20130;-72
2021/12/12 00:09:32;;;;;;;35.63;21.33;;;3.70;99.90;;;;;;5156493;27;20046;-71
2021/12/12 00:12:04;;;;;;;34.47;20.73;;;3.70;99.90;;;;;;5144884;27;20462;-71
2021/12/12 00:14:35;;;;;;;39.80;21.55;;;3.70;99.90;;;;;;5115694;27;20051;-72
2021/12/12 00:17:03;;;;;;;34.33;20.95;;;3.70;99.90;;;;;;5115467;27;20077;-71
2021/12/12 00:19:31;;;;;;;36.72;21.02;;;3.70;99.90;;;;;;5115504;27;20043;-71
2021/12/12 00:22:01;;;;;;;37.63;20.73;;;3.70;99.90;;;;;;5115289;27;20078;-71
2021/12/12 00:24:28;;;;;;;34.20;18.75;;;3.80;99.90;;;;;;5145051;27;20092;-71
2021/12/12 00:26:57;;;;;;;37.13;20.58;;;3.80;99.90;;;;;;5136050;27;20129;-71
2021/12/12 00:29:25;;;;;;;37.13;19.80;;;3.80;99.90;;;;;;5135560;27;20476;-71
2021/12/12 00:31:58;;;;;;;41.03;20.38;;;3.80;99.90;;;;;;5136087;27;20138;-71
2021/12/12 00:34:25;;;;;;;32.03;19.20;;;3.80;99.90;;;;;;5136243;27;20057;-71
2021/12/12 00:36:52;;;;;;;35.83;20.27;;;3.80;99.90;;;;;;5135422;27;20130;-72
2021/12/12 00:39:23;;;;;;;35.55;19.55;;;3.80;99.90;;;;;;5135797;27;20058;-72
2021/12/12 00:41:53;;;;;;;39.50;19.58;;;3.80;99.90;;;;;;5136129;27;20434;-72
2021/12/12 00:44:21;;;;;;;38.58;21.38;;;3.80;99.90;;;;;;5135453;27;20050;-72
2021/12/12 00:46:48;;;;;;;30.83;19.13;;;3.90;99.90;;;;;;5135620;27;20045;-72
2021/12/12 00:49:18;;;;;;;35.65;19.38;;;3.80;99.90;;;;;;5148965;27;20133;-72
2021/12/12 00:51:46;;;;;;;31.70;18.50;;;3.90;99.90;;;;;;5155913;27;20046;-72
2021/12/12 00:54:16;;;;;;;34.50;20.05;;;3.90;99.90;;;;;;5136645;27;20074;-72
2021/12/12 00:56:44;;;;;;;33.97;19.95;;;3.90;99.90;;;;;;5114979;27;20079;-72
2021/12/12 00:59:12;;;;;;;36.65;19.75;;;3.90;99.90;;;;;;5114708;27;20051;-72
2021/12/12 01:01:45;;;;;;;32.20;20.35;;;3.90;99.90;;;;;;5115441;28;20137;-72
2021/12/12 01:04:15;;;;;;;36.20;20.90;;;3.90;99.90;;;;;;5114843;28;20120;-72
2021/12/12 01:06:44;;;;;;;45.13;20.55;;;3.90;99.90;;;;;;5114732;28;20130;-72
2021/12/12 01:09:16;;;;;;;37.53;21.60;;;3.90;99.90;;;;;;5115006;28;20107;-72
2021/12/12 01:11:49;;;;;;;37.45;20.85;;;3.90;99.90;;;;;;5114409;28;20083;-71
2021/12/12 01:14:19;;;;;;;36.25;21.20;;;3.90;99.90;;;;;;5115355;28;20359;-71
2021/12/12 01:16:50;;;;;;;33.60;20.10;;;3.90;99.90;;;;;;5115046;28;20135;-72
2021/12/12 01:19:19;;;;;;;;;;;3.90;99.90;;;;;;5117676;27;20130;-73
2021/12/12 01:21:51;;;;;;;37.35;20.77;;;3.90;99.90;;;;;;5119116;27;20005;-72
2021/12/12 01:24:23;;;;;;;37.95;22.65;;;3.90;99.90;;;;;;5169551;27;20137;-71
2021/12/12 01:26:50;;;;;;;39.05;21.80;;;4.00;99.90;;;;;;5178401;27;20077;-72
2021/12/12 01:29:17;;;;;;;41.22;21.95;;;4.00;99.90;;;;;;5160219;27;20074;-71
2021/12/12 01:31:48;;;;;;;39.92;21.88;;;4.00;99.90;;;;;;5160763;27;20072;-71
2021/12/12 01:34:16;;;;;;;42.50;22.88;;;4.00;99.90;;;;;;5159674;27;20050;-72
2021/12/12 01:36:52;;;;;;;45.65;23.40;;;4.00;99.90;;;;;;5178894;27;20086;-72
2021/12/12 01:39:23;;;;;;;36.88;21.75;;;4.00;99.90;;;;;;5159612;27;20369;-72
2021/12/12 01:41:55;;;;;;;34.35;22.05;;;4.00;99.90;;;;;;5160429;27;20114;-71
2021/12/12 01:44:25;;;;;;;41.75;22.10;;;4.00;99.90;;;;;;5159986;27;20052;-71
2021/12/12 01:47:00;;;;;;;42.17;23.67;;;4.00;99.90;;;;;;5159200;27;20562;-71
2021/12/12 01:49:28;;;;;;;41.42;24.10;;;4.00;99.90;;;;;;5143173;27;20125;-71
2021/12/12 01:51:57;;;;;;;49.60;25.38;;;4.00;99.90;;;;;;5139639;27;20138;-71
2021/12/12 01:54:30;;;;;;;38.40;23.10;;;3.90;99.90;;;;;;5139675;27;20046;-71
2021/12/12 01:57:00;;;;;;;49.78;24.58;;;4.00;99.90;;;;;;5146171;27;20070;-72
2021/12/12 01:59:32;;;;;;;51.28;25.10;;;3.90;99.90;;;;;;5140147;27;20130;-72
2021/12/12 02:02:03;;;;;;;54.05;24.42;;;3.90;99.90;;;;;;5142282;27;20138;-72
2021/12/12 02:04:35;;;;;;;49.90;26.23;;;3.90;99.90;;;;;;5143668;27;20069;-73
2021/12/12 02:07:06;;;;;;;54.47;25.40;;;4.00;99.90;;;;;;5147188;27;20423;-73
2021/12/12 02:09:35;;;;;;;48.83;25.27;;;3.90;99.90;;;;;;5137937;27;20103;-72
2021/12/12 02:12:05;;;;;;;46.80;27.25;;;4.00;99.90;;;;;;5138907;27;20043;-74
2021/12/12 02:14:33;;;;;;;44.20;22.92;;;4.00;99.90;;;;;;5136095;27;20094;-73
2021/12/12 02:17:07;;;;;;;44.33;26.13;;;4.00;99.90;;;;;;5135836;27;20067;-72
2021/12/12 02:19:42;;;;;;;48.05;24.90;;;4.00;99.90;;;;;;5133107;27;20047;-70
2021/12/12 02:22:30;;;;;;;48.92;24.88;;;4.00;99.90;;;;;;5114119;28;20054;-73
2021/12/12 02:35:46;;;;;;;44.58;23.58;;;4.00;99.90;;;;;;5155305;27;20477;-70
2021/12/12 02:38:18;;;;;;;48.88;23.20;;;4.00;99.90;;;;;;5154038;27;20470;-70
2021/12/12 02:40:48;;;;;;;43.00;22.17;;;4.10;99.90;;;;;;5155548;27;20129;-70
2021/12/12 02:43:17;;;;;;;42.10;23.35;;;4.10;99.90;;;;;;5155053;27;20401;-70
2021/12/12 02:45:44;;;;;;;39.13;21.40;;;4.10;99.90;;;;;;5155395;27;20039;-72
2021/12/12 02:48:17;;;;;;;42.47;22.15;;;4.10;99.90;;;;;;5146315;27;20051;-71
2021/12/12 02:50:48;;;;;;;38.03;22.15;;;4.20;99.90;;;;;;5113745;28;20048;-71
2021/12/12 02:53:18;;;;;;;;;;;4.20;99.90;;;;;;5114716;28;20053;-71
2021/12/12 02:55:49;;;;;;;34.67;19.45;;;4.20;99.90;;;;;;5131228;27;20010;-71
2021/12/12 02:58:20;;;;;;;41.53;22.60;;;4.20;99.90;;;;;;5130302;27;20130;-70
2021/12/12 03:00:48;;;;;;;;;;;4.20;99.90;;;;;;5134815;27;20096;-71
2021/12/12 03:03:17;;;;;;;41.55;20.23;;;4.20;99.90;;;;;;5134882;27;20262;-71
2021/12/12 03:05:47;;;;;;;34.90;21.08;;;4.20;99.90;;;;;;5134020;27;20125;-71
2021/12/12 03:08:17;;;;;;;39.05;20.27;;;4.30;99.90;;;;;;5134566;27;20139;-72
2021/12/12 03:10:48;;;;;;;39.38;19.77;;;4.30;99.90;;;;;;5133763;27;20059;-72
2021/12/12 03:13:15;;;;;;;34.40;21.00;;;4.20;99.90;;;;;;5134501;27;20057;-73
2021/12/12 03:15:43;;;;;;;36.33;21.08;;;4.30;99.90;;;;;;5134893;27;20101;-72
2021/12/12 03:18:17;;;;;;;34.60;20.45;;;4.30;99.90;;;;;;5138929;27;20383;-72
2021/12/12 03:20:51;;;;;;;38.50;20.33;;;4.30;99.90;;;;;;5154684;27;20054;-72
2021/12/12 03:23:23;;;;;;;35.67;20.13;;;4.30;99.90;;;;;;5155049;27;20101;-72
2021/12/12 03:25:53;;;;;;;34.80;19.48;;;4.30;99.90;;;;;;5154096;27;20089;-72
2021/12/12 03:28:24;;;;;;;31.13;18.40;;;4.40;99.90;;;;;;5154756;27;20512;-71
2021/12/12 03:30:53;;;;;;;35.65;19.63;;;4.40;99.90;;;;;;5154830;27;20397;-71
2021/12/12 03:33:21;;;;;;;35.17;17.85;;;4.40;99.90;;;;;;5153791;27;20054;-71
2021/12/12 03:35:49;;;;;;;34.05;17.55;;;4.50;99.90;;;;;;5154792;27;20133;-72
2021/12/12 03:38:17;;;;;;;28.40;18.15;;;4.50;99.90;;;;;;5134514;27;20487;-72
2021/12/12 03:40:45;;;;;;;29.08;18.20;;;4.50;99.90;;;;;;5112762;28;20053;-72
2021/12/12 03:43:13;;;;;;;28.60;16.83;;;4.50;99.90;;;;;;5113346;28;20487;-72
2021/12/12 03:45:42;;;;;;;27.73;16.00;;;4.60;99.90;;;;;;5112572;28;20143;-71
2021/12/12 03:48:13;;;;;;;31.67;17.27;;;4.60;99.90;;;;;;5123364;27;20065;-71
2021/12/12 03:50:45;;;;;;;34.80;16.00;;;4.60;99.90;;;;;;5154051;27;20129;-71
2021/12/12 03:53:13;;;;;;;28.70;16.20;;;4.70;99.90;;;;;;5153775;27;20061;-72
2021/12/12 03:55:43;;;;;;;22.88;14.18;;;4.70;99.90;;;;;;5154132;27;20504;-73
2021/12/12 03:58:14;;;;;;;28.97;15.57;;;4.70;99.90;;;;;;5132303;27;20135;-72
2021/12/12 04:00:42;;;;;;;;;;;4.70;99.90;;;;;;5112859;28;20142;-72
2021/12/12 04:03:10;;;;;;;21.80;13.77;;;4.70;99.90;;;;;;5112905;28;19963;-72
2021/12/12 04:05:36;;;;;;;25.30;15.13;;;4.70;99.90;;;;;;5112822;28;20086;-72
2021/12/12 04:08:05;;;;;;;21.63;13.75;;;4.70;99.90;;;;;;5111984;28;20044;-72
2021/12/12 04:10:32;;;;;;;27.20;14.25;;;4.70;99.90;;;;;;5133178;27;20137;-72
2021/12/12 04:13:00;;;;;;;19.77;13.65;;;4.70;99.90;;;;;;5133342;27;20050;-71
2021/12/12 04:15:28;;;;;;;20.08;12.57;;;4.70;99.90;;;;;;5132924;27;20139;-71
2021/12/12 04:17:55;;;;;;;19.77;12.05;;;4.80;99.90;;;;;;5133461;27;20130;-71
2021/12/12 04:20:26;;;;;;;22.20;13.32;;;4.70;99.90;;;;;;5132770;27;20134;-72
2021/12/12 04:22:53;;;;;;;20.20;12.15;;;4.80;99.90;;;;;;5132369;27;20153;-72
2021/12/12 04:25:20;;;;;;;19.63;12.85;;;4.80;99.90;;;;;;5133589;27;20050;-71
2021/12/12 04:27:47;;;;;;;19.45;13.20;;;4.80;99.90;;;;;;5146671;27;20126;-71
2021/12/12 04:30:15;;;;;;;20.77;13.48;;;4.80;99.90;;;;;;5152984;27;20133;-71
2021/12/12 04:32:45;;;;;;;19.58;11.73;;;4.80;99.90;;;;;;5153573;27;20137;-71
2021/12/12 04:35:15;;;;;;;21.92;13.10;;;4.80;99.90;;;;;;5152871;27;20161;-72
2021/12/12 04:37:44;;;;;;;21.70;12.98;;;4.70;99.90;;;;;;5153613;27;20494;-72
2021/12/12 04:40:16;;;;;;;20.00;11.63;;;4.80;99.90;;;;;;5154516;27;20042;-72
2021/12/12 04:42:45;;;;;;;23.05;11.73;;;4.80;99.90;;;;;;5152619;27;20051;-72
2021/12/12 04:45:22;;;;;;;22.05;11.07;;;4.80;99.90;;;;;;5153456;27;20557;-72
2021/12/12 04:50:50;;;;;;;22.40;12.73;;;4.80;99.90;;;;;;5152606;27;20047;-72
2021/12/12 04:53:23;;;;;;;17.17;11.52;;;4.80;99.90;;;;;;5152987;27;20050;-72
2021/12/12 04:55:56;;;;;;;17.80;11.18;;;4.80;99.90;;;;;;5153121;27;20054;-72
2021/12/12 04:58:29;;;;;;;17.75;10.63;;;4.80;99.90;;;;;;5149730;27;20447;-72
2021/12/12 05:01:00;;;;;;;16.27;11.60;;;4.80;99.90;;;;;;5153116;27;20050;-72
2021/12/12 05:03:35;;;;;;;15.98;9.73;;;4.80;99.90;;;;;;5152360;27;20133;-72
2021/12/12 05:06:08;;;;;;;13.95;9.85;;;4.80;99.90;;;;;;5153211;27;20462;-71
2021/12/12 05:08:40;;;;;;;19.30;9.10;;;4.90;99.90;;;;;;5152660;27;20150;-71
2021/12/12 05:11:11;;;;;;;12.85;9.50;;;4.80;99.90;;;;;;5152270;27;20050;-71
2021/12/12 05:13:43;;;;;;;13.55;8.63;;;4.90;99.90;;;;;;5152924;27;20447;-71
2021/12/12 05:16:16;;;;;;;15.98;9.73;;;4.90;99.90;;;;;;5152497;27;20130;-70
2021/12/12 05:18:50;;;;;;;13.82;8.98;;;4.90;99.90;;;;;;5151798;27;20457;-71
2021/12/12 05:21:22;;;;;;;14.75;9.55;;;4.90;99.90;;;;;;5153646;27;20114;-71
2021/12/12 05:23:52;;;;;;;13.98;8.95;;;4.90;99.90;;;;;;5152739;27;20051;-72
2021/12/12 05:26:23;;;;;;;10.75;7.20;;;4.90;99.90;;;;;;5152073;27;20058;-73
2021/12/12 05:28:54;;;;;;;13.70;8.52;;;5.00;99.90;;;;;;5152555;27;20401;-72
2021/12/12 05:31:22;;;;;;;13.00;8.80;;;5.00;99.90;;;;;;5152094;27;20047;-72
2021/12/12 05:33:53;;;;;;;14.35;9.40;;;5.00;99.90;;;;;;5152469;27;20177;-70
2021/12/12 05:36:21;;;;;;;15.85;8.93;;;5.00;99.90;;;;;;5140802;27;20504;-71
2021/12/12 05:38:49;;;;;;;14.27;8.70;;;5.00;99.90;;;;;;5110791;28;20144;-71
2021/12/12 05:41:18;;;;;;;11.98;9.15;;;5.10;99.90;;;;;;5112805;28;20467;-71
2021/12/12 05:43:46;;;;;;;14.27;9.70;;;5.20;99.90;;;;;;5121245;28;20113;-71
2021/12/12 05:46:15;;;;;;;12.77;8.82;;;5.20;99.90;;;;;;5120024;27;20130;-72
2021/12/12 05:48:43;;;;;;;13.73;9.77;;;5.20;99.90;;;;;;5118539;27;20071;-72
2021/12/12 05:51:12;;;;;;;13.98;8.82;;;5.20;99.90;;;;;;5122269;27;20464;-71
2021/12/12 05:53:39;;;;;;;12.90;8.65;;;5.20;99.90;;;;;;5117772;28;20122;-74
2021/12/12 05:56:07;;;;;;;15.02;9.60;;;5.30;99.90;;;;;;5128551;27;20130;-72
2021/12/12 05:58:35;;;;;;;12.80;8.80;;;5.30;99.90;;;;;;5122749;28;20051;-72
2021/12/12 06:01:05;;;;;;;15.07;9.57;;;5.30;99.90;;;;;;5138357;27;20481;-72
2021/12/12 06:03:36;;;;;;;12.82;9.38;;;5.30;99.90;;;;;;5124194;28;20058;-71
2021/12/12 06:06:06;;;;;;;15.68;10.30;;;5.30;99.90;;;;;;5116288;27;20134;-71
2021/12/12 06:08:35;;;;;;;13.35;9.90;;;5.30;99.90;;;;;;5124987;27;20126;-72
2021/12/12 06:11:03;;;;;;;13.02;9.25;;;5.30;99.90;;;;;;5124832;27;20047;-72
2021/12/12 06:13:31;;;;;;;14.43;11.13;;;5.30;99.90;;;;;;5134746;27;20081;-72
2021/12/12 06:16:00;;;;;;;14.20;10.02;;;5.40;99.90;;;;;;5126616;27;20062;-71
2021/12/12 06:18:29;;;;;;;16.70;10.52;;;5.30;99.90;;;;;;5137541;27;20047;-71
2021/12/12 06:20:57;;;;;;;14.05;10.43;;;5.40;99.90;;;;;;5134685;27;20085;-71
2021/12/12 06:23:25;;;;;;;12.90;9.95;;;5.40;99.90;;;;;;5136612;27;20125;-70
2021/12/12 06:25:54;;;;;;;14.50;10.82;;;5.40;99.90;;;;;;5150516;27;20141;-70
2021/12/12 06:28:24;;;;;;;17.05;11.20;;;5.40;99.90;;;;;;5128574;27;20252;-70
2021/12/12 06:30:52;;;;;;;14.10;10.75;;;5.40;99.90;;;;;;5132137;27;20383;-71
2021/12/12 06:33:19;;;;;;;14.00;9.70;;;5.50;99.90;;;;;;5126388;27;20129;-71
2021/12/12 06:35:47;;;;;;;16.48;10.98;;;5.50;99.90;;;;;;5119228;27;20142;-71
2021/12/12 06:38:14;;;;;;;15.60;9.85;;;5.50;99.90;;;;;;5131632;27;20131;-69
2021/12/12 06:40:43;;;;;;;13.80;10.30;;;5.60;99.90;;;;;;5134187;27;20129;-70
2021/12/12 06:43:14;;;;;;;15.00;11.23;;;5.50;99.90;;;;;;5146031;27;20047;-70
2021/12/12 06:45:41;;;;;;;16.08;9.98;;;5.60;99.90;;;;;;5122687;27;20078;-72
2021/12/12 06:48:10;;;;;;;14.60;10.40;;;5.60;99.90;;;;;;5126428;27;20126;-72
2021/12/12 06:50:41;;;;;;;16.55;10.82;;;5.60;99.90;;;;;;5130793;27;20114;-71
2021/12/12 06:53:09;;;;;;;14.20;10.15;;;5.60;99.90;;;;;;5148630;27;20555;-71
2021/12/12 06:55:43;;;;;;;14.85;9.63;;;5.70;99.90;;;;;;5134752;27;20131;-72
2021/12/12 06:58:12;;;;;;;16.17;10.95;;;5.80;99.90;;;;;;5123890;27;20075;-72
2021/12/12 07:00:41;;;;;;;14.23;10.18;;;5.80;99.90;;;;;;5132598;27;20087;-72
2021/12/12 07:03:09;;;;;;;15.90;10.30;;;5.80;99.90;;;;;;5129783;27;20578;-72
2021/12/12 07:05:35;;;;;;;16.75;10.85;;;5.80;99.90;;;;;;5138534;27;20375;-73
2021/12/12 07:08:04;;;;;;;13.82;10.30;;;5.80;99.90;;;;;;5131237;27;20125;-73
2021/12/12 07:10:32;;;;;;;14.18;10.18;;;5.80;99.90;;;;;;5119036;27;20066;-72
2021/12/12 07:13:00;;;;;;;14.80;10.27;;;5.90;99.90;;;;;;5124207;27;20055;-71
2021/12/12 07:15:32;;;;;;;15.20;11.07;;;5.90;99.90;;;;;;5121974;27;20155;-71
2021/12/12 07:18:01;;;;;;;15.32;10.20;;;5.90;99.90;;;;;;5123245;27;20488;-73
2021/12/12 07:20:28;;;;;;;14.15;10.95;;;5.90;99.90;;;;;;5127166;27;20076;-72
2021/12/12 07:22:56;;;;;;;16.27;10.40;;;5.90;99.90;;;;;;5127054;27;20069;-72
2021/12/12 07:25:23;;;;;;;17.77;11.93;;;5.90;99.90;;;;;;5133584;27;20078;-72
2021/12/12 07:27:52;;;;;;;16.38;11.88;;;6.00;99.90;;;;;;5133545;27;20546;-71
2021/12/12 07:30:20;;;;;;;18.80;12.00;;;5.90;99.90;;;;;;5127325;27;20055;-72
2021/12/12 07:32:53;;;;;;;17.50;11.02;;;6.00;99.90;;;;;;5138697;27;20136;-71
2021/12/12 07:35:20;;;;;;;19.40;12.95;;;6.00;99.90;;;;;;5135736;27;20043;-72
2021/12/12 07:37:48;;;;;;;17.92;12.82;;;6.00;99.90;;;;;;5134701;27;20138;-72
2021/12/12 07:40:15;;;;;;;17.33;11.52;;;6.20;99.90;;;;;;5125138;27;20061;-72
2021/12/12 07:42:45;;;;;;;15.82;11.70;;;6.00;99.90;;;;;;5124722;27;20051;-73
2021/12/12 07:45:13;;;;;;;17.95;12.07;;;6.00;99.90;;;;;;5130921;27;20046;-73
2021/12/12 07:47:40;;;;;;;17.52;10.98;;;6.00;99.90;;;;;;5127562;27;20122;-73
2021/12/12 07:50:12;;;;;;;15.82;11.40;;;6.10;99.90;;;;;;5137735;27;20130;-72
2021/12/12 07:52:40;;;;;;;18.65;12.18;;;6.10;99.90;;;;;;5126371;27;20049;-71
2021/12/12 07:55:08;;;;;;;20.80;12.63;;;6.10;99.90;;;;;;5130342;27;20108;-71
2021/12/12 07:57:36;;;;;;;17.55;11.80;;;6.10;99.90;;;;;;5123486;27;20079;-72
2021/12/12 08:00:07;;;;;;;21.77;12.25;;;6.10;99.90;;;;;;5119477;27;20079;-73
2021/12/12 08:02:33;;;;;;;;;;;6.10;99.90;;;;;;5125646;27;20459;-72
2021/12/12 08:05:01;;;;;;;20.83;12.27;;;6.20;99.90;;;;;;5148692;27;19969;-72
2021/12/12 08:07:29;;;;;;;19.70;12.23;;;6.20;99.90;;;;;;5128208;27;20071;-72
2021/12/12 08:09:56;;;;;;;18.90;12.77;;;6.20;99.90;;;;;;5130159;27;20507;-74
2021/12/12 08:12:27;;;;;;;18.30;11.45;;;6.20;99.90;;;;;;5126813;27;20063;-72
2021/12/12 08:14:54;;;;;;;;;;;6.30;99.90;;;;;;5140359;27;20054;-72
2021/12/12 08:17:23;;;;;;;18.00;12.15;;;6.20;99.90;;;;;;5125773;27;20015;-72
2021/12/12 08:19:51;;;;;;;22.10;12.43;;;6.30;99.90;;;;;;5121526;27;20146;-72
2021/12/12 08:22:19;;;;;;;19.15;13.75;;;6.30;99.90;;;;;;5122658;27;20406;-72
2021/12/12 08:24:48;;;;;;;20.88;13.18;;;6.30;99.90;;;;;;5123296;27;20474;-73
2021/12/12 08:27:14;;;;;;;20.65;12.90;;;6.30;99.90;;;;;;5131000;27;20137;-71
2021/12/12 08:29:42;;;;;;;18.08;13.45;;;6.30;99.90;;;;;;5120057;27;20057;-72
2021/12/12 08:32:12;;;;;;;21.33;14.00;;;6.30;99.90;;;;;;5129878;27;20055;-72
2021/12/12 08:34:40;;;;;;;20.48;14.07;;;6.30;99.90;;;;;;5127706;27;20054;-72
2021/12/12 08:37:08;;;;;;;25.67;14.98;;;6.40;99.90;;;;;;5123943;27;20141;-71
2021/12/12 08:39:36;;;;;;;21.25;13.98;;;6.40;99.90;;;;;;5132843;27;20134;-72
2021/12/12 08:42:06;;;;;;;21.50;14.43;;;6.40;99.90;;;;;;5129586;27;20145;-71
2021/12/12 08:44:37;;;;;;;20.13;14.00;;;6.50;99.90;;;;;;5125736;27;20214;-70
2021/12/12 08:47:06;;;;;;;21.15;13.18;;;6.50;99.90;;;;;;5139885;27;20413;-72
2021/12/12 08:49:34;;;;;;;22.77;13.48;;;6.50;99.90;;;;;;5125479;27;20047;-72
2021/12/12 08:52:07;;;;;;;21.98;14.07;;;6.50;99.90;;;;;;5117913;27;20134;-72
2021/12/12 08:54:36;;;;;;;24.30;15.00;;;6.60;99.90;;;;;;5130184;27;20053;-72
2021/12/12 08:57:10;;;;;;;23.58;15.13;;;6.60;99.90;;;;;;5130978;27;20077;-71
2021/12/12 08:59:40;;;;;;;23.33;15.25;;;6.70;99.90;;;;;;5119835;27;20047;-72
2021/12/12 09:02:11;;;;;;;25.05;15.10;;;6.60;99.90;;;;;;5124100;27;20160;-74
2021/12/12 09:04:42;;;;;;;27.60;15.73;;;6.60;99.90;;;;;;5126545;27;20454;-72
2021/12/12 09:07:14;;;;;;;24.73;14.90;;;6.70;99.90;;;;;;5120488;27;20446;-70
2021/12/12 09:09:46;;;;;;;27.60;16.08;;;6.70;99.90;;;;;;5120726;27;20479;-72
2021/12/12 09:12:19;;;;;;;26.00;15.57;;;6.80;99.90;;;;;;5130653;27;20491;-72
2021/12/12 09:14:51;;;;;;;26.33;16.50;;;6.80;99.90;;;;;;5123253;28;20047;-76
2021/12/12 09:17:21;;;;;;;28.55;17.02;;;6.80;99.90;;;;;;5127575;27;20051;-77
2021/12/12 09:19:54;;;;;;;31.60;17.75;;;6.80;99.90;;;;;;5127697;28;20384;-80
2021/12/12 09:22:27;;;;;;;36.08;18.60;;;6.90;99.90;;;;;;5122773;27;20054;-76
2021/12/12 09:25:01;;;;;;;34.42;18.02;;;6.90;99.90;;;;;;5124823;27;20081;-77
2021/12/12 09:27:35;;;;;;;36.38;19.30;;;7.00;99.90;;;;;;5115880;28;20043;-77
2021/12/12 09:30:07;;;;;;;34.22;19.20;;;7.00;99.90;;;;;;5128280;27;20091;-78
2021/12/12 09:32:41;;;;;;;39.78;19.67;;;7.00;99.90;;;;;;5115547;27;20411;-78
2021/12/12 09:35:18;;;;;;;35.65;20.38;;;7.10;99.90;;;;;;5128928;28;20051;-76
2021/12/12 09:37:53;;;;;;;37.85;20.60;;;7.10;99.90;;;;;;5124179;27;20089;-75
2021/12/12 09:40:29;;;;;;;42.63;20.92;;;7.20;99.90;;;;;;5124188;27;20134;-76
2021/12/12 09:43:16;;;;;;;43.92;23.23;;;7.20;99.90;;;;;;5131378;27;20086;-77
2021/12/12 09:45:59;;;;;;;45.40;22.67;;;7.30;99.90;;;;;;5132674;27;20087;-80
2021/12/12 09:52:31;;;;;;;44.80;22.65;;;7.30;99.90;;;;;;5120950;27;20051;-70
2021/12/12 09:55:03;;;;;;;43.13;23.15;;;7.40;99.90;;;;;;5129124;27;20047;-70
2021/12/12 09:57:38;;;;;;;107.28;28.30;;;7.40;99.90;;;;;;5131698;27;20051;-72
2021/12/12 10:00:23;;;;;;;87.78;28.50;;;7.50;99.90;;;;;;5131263;27;20089;-74
2021/12/12 10:03:12;;;;;;;54.95;23.48;;;7.50;99.90;;;;;;5128841;27;20046;-75
2021/12/12 10:05:51;;;;;;;52.08;25.63;;;7.50;99.90;;;;;;5125202;27;20098;-78
2021/12/12 10:08:28;;;;;;;53.22;24.23;;;7.60;99.90;;;;;;5128794;27;20126;-67
2021/12/12 10:11:01;;;;;;;50.42;23.55;;;7.60;99.90;;;;;;5123046;27;20133;-70
2021/12/12 10:13:33;;;;;;;54.38;26.33;;;7.60;99.90;;;;;;5129263;27;20074;-76
2021/12/12 10:16:06;;;;;;;50.45;23.85;;;7.70;99.90;;;;;;5119317;27;20135;-75
2021/12/12 10:18:49;;;;;;;513.35;70.10;;;7.70;99.90;;;;;;5126886;27;20086;-73
2021/12/12 10:21:22;;;;;;;302.08;50.50;;;7.80;99.90;;;;;;5116832;27;20047;-72
2021/12/12 10:24:05;;;;;;;40.17;22.00;;;8.30;99.90;;;;;;5144387;27;20480;-74
2021/12/12 10:26:38;;;;;;;39.28;20.83;;;8.20;99.90;;;;;;5129042;27;20134;-73
2021/12/12 10:29:10;;;;;;;49.92;23.83;;;8.10;99.90;;;;;;5130534;27;20103;-73
2021/12/12 10:31:46;;;;;;;39.80;21.48;;;8.10;99.90;;;;;;5132859;27;20130;-73
2021/12/12 10:34:20;;;;;;;41.60;22.15;;;8.10;99.90;;;;;;5130846;27;20147;-73
2021/12/12 10:36:52;;;;;;;41.25;20.52;;;8.10;99.90;;;;;;5130066;27;20069;-73
2021/12/12 10:39:24;;;;;;;43.42;21.25;;;8.10;99.90;;;;;;5138810;27;20071;-74
2021/12/12 10:41:55;;;;;;;42.70;21.02;;;8.10;99.90;;;;;;5126414;27;20057;-74
2021/12/12 10:44:25;;;;;;;37.00;20.15;;;8.20;99.90;;;;;;5129739;27;20070;-74
2021/12/12 10:47:02;;;;;;;38.88;20.80;;;8.20;99.90;;;;;;5140090;27;20050;-74
2021/12/12 10:49:36;;;;;;;47.75;22.40;;;8.20;99.90;;;;;;5130789;27;20101;-72
2021/12/12 10:52:07;;;;;;;35.67;19.50;;;8.20;99.90;;;;;;5135310;27;20051;-73
2021/12/12 10:54:40;;;;;;;41.75;20.65;;;8.30;99.90;;;;;;5126813;27;20424;-74
2021/12/12 10:57:11;;;;;;;42.42;21.27;;;8.30;99.90;;;;;;5132339;27;20070;-74
2021/12/12 10:59:43;;;;;;;42.40;21.55;;;8.30;99.90;;;;;;5147444;27;20117;-74
2021/12/12 11:02:14;;;;;;;36.20;19.88;;;8.40;99.90;;;;;;5130120;27;20279;-72
2021/12/12 11:04:45;;;;;;;35.45;18.98;;;8.40;99.90;;;;;;5129144;27;20452;-80
2021/12/12 11:07:13;;;;;;;;;;;8.40;99.90;;;;;;5126520;27;20134;-71
2021/12/12 11:09:44;;;;;;;35.15;18.60;;;8.40;99.90;;;;;;5131214;27;19927;-72
2021/12/12 11:12:17;;;;;;;39.78;20.98;;;8.50;99.90;;;;;;5122632;27;20083;-70
2021/12/12 11:14:53;;;;;;;38.20;19.45;;;8.50;99.90;;;;;;5139051;27;20051;-72
2021/12/12 11:17:27;;;;;;;39.53;19.60;;;8.50;99.90;;;;;;5124883;27;20226;-73
2021/12/12 11:19:58;;;;;;;38.80;17.52;;;8.50;99.90;;;;;;5117347;27;20047;-66
2021/12/12 11:22:30;;;;;;;31.48;17.73;;;8.50;99.90;;;;;;5121728;27;20089;-72
2021/12/12 11:25:05;;;;;;;31.85;16.83;;;8.60;99.90;;;;;;5124634;27;20050;-71
2021/12/12 11:27:34;;;;;;;38.33;18.85;;;8.70;99.90;;;;;;5120794;27;20123;-73
2021/12/12 11:30:07;;;;;;;33.53;17.63;;;8.80;99.90;;;;;;5121957;27;20505;-74
2021/12/12 11:32:37;;;;;;;30.13;16.98;;;8.80;99.90;;;;;;5125333;27;20085;-74
2021/12/12 11:35:08;;;;;;;36.67;19.40;;;9.10;99.90;;;;;;5128519;27;20053;-79
2021/12/12 11:37:37;;;;;;;;;;;8.80;99.90;;;;;;5116931;27;20139;-71
2021/12/12 11:40:13;;;;;;;28.83;16.45;;;8.80;99.90;;;;;;5127075;27;20315;-71
2021/12/12 11:42:45;;;;;;;29.23;15.55;;;8.90;99.90;;;;;;5122360;27;20129;-72
2021/12/12 11:45:18;;;;;;;30.70;16.85;;;8.90;99.90;;;;;;5125541;27;20051;-73
2021/12/12 11:48:03;;;;;;;27.55;14.95;;;8.90;99.90;;;;;;5134562;27;20059;-71
2021/12/12 11:50:38;;;;;;;25.15;14.93;;;9.00;99.90;;;;;;5124841;27;20703;-80
2021/12/12 11:53:09;;;;;;;30.52;16.30;;;8.90;99.90;;;;;;5130331;27;20128;-73
2021/12/12 11:55:40;;;;;;;22.00;14.93;;;8.90;99.90;;;;;;5123985;27;20162;-72
2021/12/12 11:58:19;;;;;;;22.88;14.07;;;9.00;99.90;;;;;;5129735;27;20039;-73
2021/12/12 12:00:51;;;;;;;27.30;15.07;;;9.00;99.90;;;;;;5123917;27;20122;-74
2021/12/12 12:03:27;;;;;;;25.55;13.80;;;9.00;99.90;;;;;;5123636;27;20142;-70
2021/12/12 12:06:08;;;;;;;27.55;13.38;;;9.10;99.90;;;;;;5127308;27;20099;-69
2021/12/12 12:08:46;;;;;;;22.00;12.98;;;9.10;99.90;;;;;;5119940;27;20057;-68
2021/12/12 12:11:27;;;;;;;22.52;13.68;;;9.10;99.90;;;;;;5135942;27;20043;-68
2021/12/12 12:13:56;;;;;;;23.63;13.30;;;9.10;99.90;;;;;;5117631;27;20165;-68
2021/12/12 12:16:35;;;;;;;20.05;12.98;;;9.10;99.90;;;;;;5130243;27;20406;-70
2021/12/12 12:19:10;;;;;;;20.17;13.10;;;9.20;99.90;;;;;;5124780;27;20054;-69
2021/12/12 12:21:42;;;;;;;18.67;12.55;;;9.20;99.90;;;;;;5122769;27;20463;-70
2021/12/12 12:24:17;;;;;;;19.50;12.00;;;9.20;99.90;;;;;;5125318;27;20065;-69
2021/12/12 12:26:53;;;;;;;19.23;11.60;;;9.20;99.90;;;;;;5131109;27;20153;-71
2021/12/12 12:30:08;;;;;;;21.77;13.00;;;9.20;99.90;;;;;;5127256;27;20055;-69
2021/12/12 12:33:07;;;;;;;18.52;12.07;;;9.20;99.90;;;;;;5124393;27;20086;-69
2021/12/12 12:36:07;;;;;;;24.60;14.23;;;9.20;99.90;;;;;;5087088;27;20051;-72
2021/12/12 12:39:25;;;;;;;21.45;12.75;;;9.20;99.90;;;;;;5121703;27;20471;-73
2021/12/12 12:42:42;;;;;;;25.38;12.95;;;9.20;99.90;;;;;;5141041;27;20046;-72
2021/12/12 12:46:00;;;;;;;21.52;12.82;;;9.20;99.90;;;;;;5129094;27;20059;-71
2021/12/12 12:49:05;;;;;;;21.73;12.52;;;9.20;99.90;;;;;;5132921;27;20051;-71
2021/12/12 12:51:54;;;;;;;20.15;12.13;;;9.20;99.90;;;;;;5136785;27;20133;-70
2021/12/12 12:54:29;;;;;;;23.58;11.98;;;9.20;99.90;;;;;;5124663;27;20043;-70
2021/12/12 12:57:20;;;;;;;20.70;11.98;;;9.20;99.90;;;;;;5128136;27;20498;-69
2021/12/12 13:00:08;;;;;;;18.10;11.13;;;9.30;99.90;;;;;;5121626;27;20078;-68
2021/12/12 13:02:59;;;;;;;16.65;11.38;;;9.30;99.90;;;;;;5132368;27;20534;-69
2021/12/12 13:05:51;;;;;;;18.77;11.52;;;9.30;99.90;;;;;;5123338;27;20074;-69
2021/12/12 13:09:00;;;;;;;16.27;10.10;;;9.30;99.90;;;;;;5131779;27;20073;-71
2021/12/12 13:11:36;;;;;;;16.85;10.35;;;9.30;99.90;;;;;;5099579;28;20043;-70
2021/12/12 13:14:15;;;;;;;18.38;10.90;;;9.30;99.90;;;;;;5136613;27;20416;-72
2021/12/12 13:16:48;;;;;;;21.83;11.27;;;9.50;99.90;;;;;;5131808;28;20082;-71
2021/12/12 13:19:27;;;;;;;18.17;9.77;;;9.30;99.90;;;;;;5135342;27;20043;-71
2021/12/12 13:22:03;;;;;;;21.52;11.07;;;9.30;99.90;;;;;;5132524;27;20383;-70
2021/12/12 13:24:39;;;;;;;17.50;10.45;;;9.30;99.90;;;;;;5134354;27;20518;-72